To NAV CANADA Home Page Login to a new session Search on AWWS site Disclaimer Vers la page française équivalente Tips FAQ What's new on the site To the Forecasts and Observations / NOTAM section To "File a Flight Plan" website Publications and other links Update of the User's profile FIC Telephone Numbers My Weather Data Folder Route Weather Data Regional Weather Data Local Weather Data To the Forecasts and Observations / NOTAM section
Request Generated 06/25/2021 at 12:54:09 UTC . Weather information available at that time is displayed.


Save this request - Inactive

METAR/TAF

If you find any discrepancies between the coded METAR/TAF and the plain language METAR/TAF please use the coded METAR/TAF. LWIS bulletins are not decoded in plain language.

EDMONTON INTL/AB    

METAR CYEG 251200Z 25006KT 20SM FEW090 BKN160 BKN250 14/11 A2995 RMK ACC1AC6CI1 CC TR CI TR SLP142 DENSITY ALT 2800FT=
METAR
LOCATION
CYEG - EDMONTON INTL/AB
DATE - TIME
25 JUNE 2021 - 1200 UTC
WIND
250 TRUE @ 6  KNOTS
VISIBILITY
20 STAT.  MILES
RUNWAY VISUAL RANGE
WEATHER
CLOUDINESS
FEW CLOUDS (1/8 - 2/8) 9000  FT
BROKEN CLOUDS (5/8 - 7/8) 16000  FT
BROKEN CLOUDS (5/8 - 7/8) 25000  FT
TEMP / DEWPOINT
14 C / 11 C
ALTIMETER
29.95 IN HG
RECENT WEATHER
WIND SHEAR

METAR CYEG 251100Z 27007KT 20SM FEW090 BKN170 BKN250 14/11 A2994 RMK AC1AC7CI1 TR CI TR VIRGA N QUAD SLP140 DENSITY ALT 2800FT=
METAR
LOCATION
CYEG - EDMONTON INTL/AB
DATE - TIME
25 JUNE 2021 - 1100 UTC
WIND
270 TRUE @ 7  KNOTS
VISIBILITY
20 STAT.  MILES
RUNWAY VISUAL RANGE
WEATHER
CLOUDINESS
FEW CLOUDS (1/8 - 2/8) 9000  FT
BROKEN CLOUDS (5/8 - 7/8) 17000  FT
BROKEN CLOUDS (5/8 - 7/8) 25000  FT
TEMP / DEWPOINT
14 C / 11 C
ALTIMETER
29.94 IN HG
RECENT WEATHER
WIND SHEAR

METAR CYEG 251000Z 25005KT 20SM FEW090 BKN170 BKN250 15/11 A2994 RMK AC1AC6CI1 TR SLP138 DENSITY ALT 2900FT=
METAR
LOCATION
CYEG - EDMONTON INTL/AB
DATE - TIME
25 JUNE 2021 - 1000 UTC
WIND
250 TRUE @ 5  KNOTS
VISIBILITY
20 STAT.  MILES
RUNWAY VISUAL RANGE
WEATHER
CLOUDINESS
FEW CLOUDS (1/8 - 2/8) 9000  FT
BROKEN CLOUDS (5/8 - 7/8) 17000  FT
BROKEN CLOUDS (5/8 - 7/8) 25000  FT
TEMP / DEWPOINT
15 C / 11 C
ALTIMETER
29.94 IN HG
RECENT WEATHER
WIND SHEAR

TAF CYEG 251138Z 2512/2612 27006KT P6SM FEW080 BKN150 BECMG 2514/2516 30012G22KT FM251600 30015G25KT P6SM FEW060 FM260600 28006KT P6SM SKC RMK NXT FCST BY 251500Z=
TAF
LOCATION

CYEG - EDMONTON INTL/AB
VALIDITY [UTC]
25 JUN - 1138 to
26 JUN - 1200
 
TIMES
[UTC]
WIND
[DEGREES TRUE]
VISIBILITY
[STAT. MILES]
WEATHER
CLOUDINESS
[FEET AGL]
 
25 JUN - 1200 to
25 JUN - 1600
270 @ 6 KNOTS
6+
NIL
8000 FEW
15000 BROKEN
BECOMING
25 JUN - 1400 to
25 JUN - 1600
300 @ 12 KNOTS
GUSTS 22 KNOTS
 
 
 
 
25 JUN - 1600 to
26 JUN - 0600
300 @ 15 KNOTS
GUSTS 25 KNOTS
6+
NIL
6000 FEW
 
26 JUN - 0600 to
26 JUN - 1200
280 @ 6 KNOTS
6+
NIL
CLEAR SKY
REMARKS
THE NEXT FORECAST WILL BE ISSUED BY 1500 UTC ON DAY 25


EDMONTON/NAMAO/AB    

METAR CYED 251200Z AUTO 26005KT 9SM FEW085 16/11 A2993 RMK SLP133=
METAR
LOCATION
CYED - EDMONTON/NAMAO/AB
DATE - TIME
25 JUNE 2021 - 1200 UTC
WIND
260 TRUE @ 5  KNOTS
VISIBILITY
9 STAT.  MILES
RUNWAY VISUAL RANGE
WEATHER
CLOUDINESS
FEW CLOUDS (1/8 - 2/8) 8500  FT
TEMP / DEWPOINT
16 C / 11 C
ALTIMETER
29.93 IN HG
RECENT WEATHER
WIND SHEAR

METAR CYED 251100Z AUTO 25005KT 9SM CLR 16/11 A2992 RMK SLP130=
METAR
LOCATION
CYED - EDMONTON/NAMAO/AB
DATE - TIME
25 JUNE 2021 - 1100 UTC
WIND
250 TRUE @ 5  KNOTS
VISIBILITY
9 STAT.  MILES
RUNWAY VISUAL RANGE
WEATHER
CLOUDINESS
CLEAR SKY
TEMP / DEWPOINT
16 C / 11 C
ALTIMETER
29.92 IN HG
RECENT WEATHER
WIND SHEAR

METAR CYED 251000Z AUTO 26005KT 9SM FEW077 16/11 A2992 RMK SLP131=
METAR
LOCATION
CYED - EDMONTON/NAMAO/AB
DATE - TIME
25 JUNE 2021 - 1000 UTC
WIND
260 TRUE @ 5  KNOTS
VISIBILITY
9 STAT.  MILES
RUNWAY VISUAL RANGE
WEATHER
CLOUDINESS
FEW CLOUDS (1/8 - 2/8) 7700  FT
TEMP / DEWPOINT
16 C / 11 C
ALTIMETER
29.92 IN HG
RECENT WEATHER
WIND SHEAR

TAF CYED 251130Z 2512/2524 26005KT P6SM SCT070 FM251700 28012G22KT P6SM FEW070 RMK FCST BASED ON AUTO OBS. NXT FCST BY 251800Z=
TAF

25 JUN 2021 - 1130 UTC
LOCATION

CYED - EDMONTON/NAMAO/AB
VALIDITY [UTC]
25 JUN - 1130 to
26 JUN - 0000
 
TIMES
[UTC]
WIND
[DEGREES TRUE]
VISIBILITY
[STAT. MILES]
WEATHER
CLOUDINESS
[FEET AGL]
 
25 JUN - 1200 to
25 JUN - 1700
260 @ 5 KNOTS
6+
NIL
7000 SCATTERED
 
25 JUN - 1700 to
26 JUN - 0000
280 @ 12 KNOTS
GUSTS 22 KNOTS
6+
NIL
7000 FEW
REMARKS
THE FORECAST IS BASED ON AUTOMATIC OBSERVATIONS - THE NEXT FORECAST WILL BE ISSUED BY 1800 UTC ON DAY 25


EDMONTON/EDMONTON CITY CENTRE(BLATCHFORD FIELD)/AB    

CYXD - METAR not available

CYXD - TAF not available

EDMONTON/VILLENEUVE/AB    (show WxCam)

METAR CZVL 251200Z AUTO 27009KT 9SM BKN160 18/10 A2993 RMK SLP131 DENSITY ALT 3 0FT=
METAR
LOCATION
CZVL - EDMONTON/VILLENEUVE/AB
DATE - TIME
25 JUNE 2021 - 1200 UTC
WIND
270 TRUE @ 9  KNOTS
VISIBILITY
9 STAT.  MILES
RUNWAY VISUAL RANGE
WEATHER
CLOUDINESS
BROKEN CLOUDS (5/8 - 7/8) 16000  FT
TEMP / DEWPOINT
18 C / 10 C
ALTIMETER
29.93 IN HG
RECENT WEATHER
WIND SHEAR

METAR CZVL 251100Z AUTO 26008KT 9SM FEW170 17/10 A2992 RMK SLP129 DENSITY ALT 3 0FT=
METAR
LOCATION
CZVL - EDMONTON/VILLENEUVE/AB
DATE - TIME
25 JUNE 2021 - 1100 UTC
WIND
260 TRUE @ 8  KNOTS
VISIBILITY
9 STAT.  MILES
RUNWAY VISUAL RANGE
WEATHER
CLOUDINESS
FEW CLOUDS (1/8 - 2/8) 17000  FT
TEMP / DEWPOINT
17 C / 10 C
ALTIMETER
29.92 IN HG
RECENT WEATHER
WIND SHEAR

METAR CZVL 251000Z AUTO 26006KT 9SM FEW160 18/10 A2992 RMK SLP129 DENSITY ALT 3 0FT=
METAR
LOCATION
CZVL - EDMONTON/VILLENEUVE/AB
DATE - TIME
25 JUNE 2021 - 1000 UTC
WIND
260 TRUE @ 6  KNOTS
VISIBILITY
9 STAT.  MILES
RUNWAY VISUAL RANGE
WEATHER
CLOUDINESS
FEW CLOUDS (1/8 - 2/8) 16000  FT
TEMP / DEWPOINT
18 C / 10 C
ALTIMETER
29.92 IN HG
RECENT WEATHER
WIND SHEAR

TAF CZVL 251138Z 2512/2524 26008KT P6SM SCT180 BECMG 2514/2516 30015G25KT FM251600 30018G28KT P6SM FEW060 RMK FCST BASED ON AUTO OBS. NXT FCST BY 251800Z=
TAF

25 JUN 2021 - 1138 UTC
LOCATION

CZVL - EDMONTON/VILLENEUVE/AB
VALIDITY [UTC]
25 JUN - 1138 to
26 JUN - 0000
 
TIMES
[UTC]
WIND
[DEGREES TRUE]
VISIBILITY
[STAT. MILES]
WEATHER
CLOUDINESS
[FEET AGL]
 
25 JUN - 1200 to
25 JUN - 1600
260 @ 8 KNOTS
6+
NIL
18000 SCATTERED
BECOMING
25 JUN - 1400 to
25 JUN - 1600
300 @ 15 KNOTS
GUSTS 25 KNOTS
 
 
 
 
25 JUN - 1600 to
26 JUN - 0000
300 @ 18 KNOTS
GUSTS 28 KNOTS
6+
NIL
6000 FEW
REMARKS
THE FORECAST IS BASED ON AUTOMATIC OBSERVATIONS - THE NEXT FORECAST WILL BE ISSUED BY 1800 UTC ON DAY 25




Your time UTC time
Weather data provided by Environment Canada and NAV CANADA